19 de maio de 2022

Tempo Código Clima Temp. Visão Nuvens Vento METAR/SPECI
20:20
V
19 °C 10 km+ - 220°   220° 4 kt METAR EDWE 191820Z 22004KT 180V250 9999 SCT011 19/17 Q1017
19:50
V
20 °C 10 km+ - 210°   210° 5 kt METAR EDWE 191750Z 21005KT 180V240 9999 SCT010 20/17 Q1017
18:50
V
19 °C 10 km+ - Var   Var 2 kt METAR EDWE 191650Z VRB02KT CAVOK 19/16 Q1016
18:20
V
18 °C 10 km+ - 350°   350° 3 kt METAR EDWE 191620Z 35003KT 320V040 CAVOK 18/17 Q1016
17:50
V
17 °C 9 km - Var   Var 2 kt METAR EDWE 191550Z VRB02KT 9000 SCT007 17/17 Q1016
17:20
M
17 °C 6 km - 090°   090° 11 kt METAR EDWE 191520Z 09011KT 6000 NSC 17/17 Q1015 REDZ
16:50
M
17 °C 5 km 5.000 ft 290°   290° 7 kt METAR EDWE 191450Z 29007KT 270V340 5000 -DZ OVC050 17/16 Q1018 TSRA
16:20
I
18 °C 4,8 km 4.400 ft 290°   290° 17 kt METAR EDWE 191420Z 29017KT 4800 TSRA FEW016 OVC044CB 18/16 Q1018
15:50
V
22 °C 10 km+ - 290°   290° 10 kt METAR EDWE 191350Z 29010KT 9999 -DZ STC048 22/17 Q1017
15:20
V
24 °C 10 km+ - 170°   170° 6 kt METAR EDWE 191320Z 17006KT 140V220 CAVOK 24/16 Q1016
14:50
V
24 °C 10 km+ - 160°   160° 6 kt METAR EDWE 191250Z 16006KT 120V180 CAVOK 24/16 Q1016
14:20
V
23 °C 10 km+ - 140°   140° 8 kt METAR EDWE 191220Z 14008KT 110V170 CAVOK 23/17 Q1016
13:50
V
22 °C 10 km+ - 110°   110° 8 kt METAR EDWE 191150Z 11008KT 080V140 CAVOK 22/15 Q1016
13:20
V
22 °C 10 km+ - 120°   120° 8 kt METAR EDWE 191120Z 12008KT 080V160 CAVOK 22/16 Q1016
12:50
V
21 °C 10 km+ - 100°   100° 5 kt METAR EDWE 191050Z 10005KT 060V150 CAVOK 21/17 Q1017
12:20
V
20 °C 10 km+ - 060°   060° 4 kt METAR EDWE 191020Z 06004KT 030V120 CAVOK 20/16 Q1018
06:20
I
14 °C 3,5 km - 100°   100° 4 kt METAR EDWE 190420Z AUTO 10004KT 3500 // SCT230/// 14/13 Q1017
05:50
I
13 °C 3,1 km - 100°   100° 6 kt METAR EDWE 190350Z AUTO 10006KT 3100 // NCD 13/13 Q1017
05:20
I
13 °C 3 km - 110°   110° 3 kt METAR EDWE 190320Z AUTO 11003KT 3000 // NCD 13/12 Q1017
04:50
L
13 °C 1 km - 080°   080° 4 kt METAR EDWE 190250Z AUTO 08004KT 1000 R25/1900U // NCD 13/13 Q1018
04:20
I
14 °C 2,1 km - Var   Var 2 kt METAR EDWE 190220Z AUTO VRB02KT 2100 // NCD 14/13 Q1018
03:50
I
14 °C 2,5 km - 100°   100° 3 kt METAR EDWE 190150Z AUTO 10003KT 2500 // SCT083/// 14/13 Q1018
03:20
L
13 °C 350 m - 030°   030° 3 kt METAR EDWE 190120Z AUTO 03003KT 0350 R25/0400N // SCT085/// 13/12 Q1018
02:50
L
13 °C 350 m - 040°   040° 2 kt METAR EDWE 190050Z AUTO 04002KT 0350 R25/0400D // FEW079/// 13/12 Q1019
02:20
I
13 °C 2,2 km 8.500 ft 350°   350° 2 kt METAR EDWE 190020Z AUTO 35002KT 2200 // BKN085/// 13/13 Q1019
01:50
I
13 °C 1,6 km 8.700 ft 340°   340° 1 kt METAR EDWE 182350Z AUTO 34001KT 1600 // BKN087/// 13/13 Q1019
01:20
L
13 °C 600 m - Var   Var 1 kt METAR EDWE 182320Z AUTO VRB01KT 0600 R25/0550D // SCT086/// 13/12 Q1019
00:50
L
13 °C 300 m - Var   Var 1 kt METAR EDWE 182250Z AUTO VRB01KT 0300 R25/0350D // FEW087/// 13/12 Q1019
00:20
I
14 °C 2,5 km - Var   000° 0 kt METAR EDWE 182220Z AUTO 00000KT 2500 // NCD 14/13 Q1019

18 de maio de 2022

Tempo Código Clima Temp. Visão Nuvens Vento METAR/SPECI
23:50
I
14 °C 4,5 km - 270°   270° 3 kt METAR EDWE 182150Z AUTO 27003KT 4500 // NCD 14/13 Q1019
23:20
I
14 °C 3,3 km - 270°   270° 4 kt METAR EDWE 182120Z AUTO 27004KT 3300 // NCD 14/13 Q1020
22:50
M
15 °C 5 km - 290°   290° 2 kt METAR EDWE 182050Z AUTO 29002KT 5000 // NCD 15/13 Q1020
22:20
M
15 °C 6 km - 290°   290° 2 kt METAR EDWE 182020Z AUTO 29002KT 6000 // NCD 15/13 Q1020
21:50
M
16 °C 7 km - 280°   280° 5 kt METAR EDWE 181950Z AUTO 28005KT 7000 // ///////// 16/14 Q1020
21:20
V
17 °C 9 km - 300°   300° 2 kt METAR EDWE 181920Z AUTO 30002KT 9000 // ///////// 17/14 Q1020
20:50
V
17 °C 10 km+ - 320°   320° 3 kt METAR EDWE 181850Z AUTO 32003KT 9999 // ///////// 17/14 Q1020
06:20
V
15 °C 10 km+ - 130°   130° 6 kt METAR EDWE 180420Z AUTO 13006KT 9999 // NCD 15/13 Q1019
05:50
V
15 °C 10 km+ - 130°   130° 6 kt METAR EDWE 180350Z AUTO 13006KT 9999 // NCD 15/13 Q1019
05:20
V
16 °C 10 km+ 16.000 ft 140°   140° 6 kt METAR EDWE 180320Z AUTO 14006KT 9999 // BKN160/// 16/14 Q1019
04:50
V
16 °C 10 km+ 16.000 ft 130°   130° 6 kt METAR EDWE 180250Z AUTO 13006KT 9999 // OVC160/// 16/14 Q1019
04:20
V
16 °C 9 km 17.000 ft 120°   120° 4 kt METAR EDWE 180220Z AUTO 12004KT 090V150 9000 // BKN170/// 16/14 Q1019
03:50
V
16 °C 8 km 17.000 ft 120°   120° 4 kt METAR EDWE 180150Z AUTO 12004KT 090V160 8000 // FEW062/// BKN170/// 16/14 Q1020
03:20
V
16 °C 9 km - 130°   130° 5 kt METAR EDWE 180120Z AUTO 13005KT 9000 // SCT170/// 16/14 Q1019
02:50
V
16 °C 9 km 20.000 ft 110°   110° 4 kt METAR EDWE 180050Z AUTO 11004KT 9000 // FEW140/// SCT170/// BKN200/// 16/14 Q1019
02:20
V
16 °C 10 km+ 21.000 ft 120°   120° 4 kt METAR EDWE 180020Z AUTO 12004KT 080V150 9999 // FEW063/// BKN210/// 16/15 Q1020
01:50
V
17 °C 10 km+ 20.000 ft 110°   110° 7 kt METAR EDWE 172350Z AUTO 11007KT 9999 // FEW064/// BKN200/// 17/15 Q1020
01:20
V
17 °C 10 km+ 5.900 ft 110°   110° 8 kt METAR EDWE 172320Z AUTO 11008KT 9999 // BKN059/// BKN140/// 17/15 Q1020
00:50
V
18 °C 10 km+ 5.800 ft 110°   110° 8 kt METAR EDWE 172250Z AUTO 11008KT 9999 // BKN058/// 18/15 Q1020
00:20
V
18 °C 10 km+ 5.800 ft 110°   110° 8 kt METAR EDWE 172220Z AUTO 11008KT 9999 // BKN058/// BKN180/// 18/15 Q1020

17 de maio de 2022

Tempo Código Clima Temp. Visão Nuvens Vento METAR/SPECI
23:50
V
17 °C 10 km+ 18.000 ft 110°   110° 7 kt METAR EDWE 172150Z AUTO 11007KT 9999 // BKN180/// 17/15 Q1020
23:20
V
16 °C 10 km+ 18.000 ft 100°   100° 6 kt METAR EDWE 172120Z AUTO 10006KT 9999 // BKN180/// BKN230/// 16/15 Q1020
22:50
V
16 °C 10 km+ 18.000 ft 100°   100° 5 kt METAR EDWE 172050Z AUTO 10005KT 9999 // BKN180/// 16/14 Q1020
22:20
V
16 °C 10 km+ - 090°   090° 5 kt METAR EDWE 172020Z AUTO 09005KT 9999 // ///////// 16/14 Q1020
21:50
V
17 °C 10 km+ - 080°   080° 4 kt METAR EDWE 171950Z AUTO 08004KT 9999 // ///////// 17/15 Q1020
21:20
V
17 °C 10 km+ - 080°   080° 5 kt METAR EDWE 171920Z AUTO 08005KT 9999 // ///////// 17/15 Q1020
20:50
V
18 °C 10 km+ - 070°   070° 5 kt METAR EDWE 171850Z AUTO 07005KT 9999 // ///////// 18/16 Q1020
Dados mais antigos

Baixe nosso aplicativo

Fácil acesso a todas as condições meteorológicas da aviação no seu celular e no seu tablet.
Com muitos recursos não disponíveis no site, como suporte offline e uma lista pessoal de aeroportos.

Nós e terceiros acompanhamos seu comportamento na internet em nosso site com cookies. Se você continuar, nós assumimos que você concorda com nossa política de cookies. Saiba mais